createdAt,value
2022-11-18T00:01:11.406Z,17.65
2022-11-18T00:03:39.709Z,16.45
2022-11-18T00:06:08.193Z,16.52
2022-11-18T00:08:35.508Z,15.95
2022-11-18T00:11:13.188Z,15.50
2022-11-18T00:13:59.118Z,15.93
2022-11-18T00:16:26.693Z,16.05
2022-11-18T00:18:54.082Z,16.00
2022-11-18T00:21:21.426Z,15.25
2022-11-18T00:23:49.216Z,14.82
2022-11-18T00:26:16.528Z,14.77
2022-11-18T00:28:43.950Z,16.08
2022-11-18T00:31:13.703Z,15.27
2022-11-18T00:33:41.253Z,15.52
2022-11-18T00:36:11.023Z,15.23
2022-11-18T00:38:39.576Z,14.48
2022-11-18T00:41:12.776Z,14.40
2022-11-18T00:43:41.010Z,15.70
2022-11-18T00:46:10.158Z,16.35
2022-11-18T00:48:37.981Z,15.13
2022-11-18T00:51:17.376Z,15.32
2022-11-18T00:53:45.126Z,16.27
2022-11-18T00:56:12.716Z,17.42
2022-11-18T00:58:40.017Z,17.55
2022-11-18T01:01:07.433Z,17.05
2022-11-18T01:03:35.037Z,17.48
2022-11-18T01:06:02.369Z,16.92
2022-11-18T01:08:29.693Z,17.58
2022-11-18T01:11:17.227Z,17.48
2022-11-18T01:13:44.645Z,16.52
2022-11-18T01:16:18.895Z,18.77
2022-11-18T01:18:46.297Z,20.47
2022-11-18T01:21:13.954Z,18.15
2022-11-18T01:23:41.275Z,18.98
2022-11-18T01:26:10.930Z,19.40
2022-11-18T01:28:38.547Z,18.83
2022-11-18T01:31:08.115Z,17.98
2022-11-18T01:33:35.665Z,17.92
2022-11-18T01:36:03.299Z,16.60
2022-11-18T01:38:30.949Z,17.37
2022-11-18T01:40:58.264Z,16.90
2022-11-18T01:43:25.849Z,16.75
2022-11-18T01:45:54.175Z,16.52
2022-11-18T01:48:33.324Z,16.45
2022-11-18T01:51:04.995Z,17.15
2022-11-18T01:53:34.615Z,16.20
2022-11-18T01:56:06.956Z,15.20
2022-11-18T01:58:39.685Z,15.60
2022-11-18T02:01:08.106Z,16.08
2022-11-18T02:03:36.134Z,14.75
2022-11-18T02:06:05.288Z,16.15
2022-11-18T02:08:32.943Z,15.30
2022-11-18T02:11:00.260Z,16.87
2022-11-18T02:13:27.824Z,18.50
2022-11-18T02:16:13.594Z,18.05
2022-11-18T02:18:55.258Z,18.12
2022-11-18T02:21:42.539Z,18.30
2022-11-18T02:24:22.206Z,17.25
2022-11-18T02:27:20.907Z,18.90
2022-11-18T02:30:15.438Z,18.35
2022-11-18T02:32:48.715Z,19.98
2022-11-18T02:35:28.977Z,19.58
2022-11-18T02:38:07.912Z,19.67
2022-11-18T02:40:43.651Z,19.15
2022-11-18T02:46:08.118Z,20.10
2022-11-18T02:48:39.237Z,22.95
2022-11-18T02:51:09.320Z,22.05
2022-11-18T02:53:38.605Z,22.77
2022-11-18T02:56:07.373Z,20.85
2022-11-18T02:58:34.947Z,20.85
2022-11-18T03:01:02.529Z,20.30
2022-11-18T03:03:32.208Z,20.83
2022-11-18T03:06:10.801Z,20.90
2022-11-18T03:08:42.781Z,17.50
2022-11-18T03:11:17.416Z,19.25
2022-11-18T03:14:16.004Z,20.67
2022-11-18T03:16:52.530Z,18.52
2022-11-18T03:19:24.932Z,20.12
2022-11-18T03:22:07.545Z,18.00
2022-11-18T03:24:35.664Z,15.18
2022-11-18T03:27:27.285Z,15.75
2022-11-18T03:29:59.968Z,16.65
2022-11-18T03:32:30.655Z,17.10
2022-11-18T03:35:02.426Z,16.80
2022-11-18T03:37:32.305Z,17.17
2022-11-18T03:40:23.403Z,19.98
2022-11-18T03:42:54.658Z,21.30
2022-11-18T03:45:26.633Z,18.40
2022-11-18T03:48:07.419Z,18.85
2022-11-18T03:50:39.729Z,17.45
2022-11-18T03:53:07.678Z,19.85
2022-11-18T03:55:39.966Z,18.67
2022-11-18T03:58:20.500Z,20.42
2022-11-18T04:00:50.311Z,18.85
2022-11-18T04:03:18.043Z,20.27
2022-11-18T04:05:46.570Z,19.65
2022-11-18T04:08:19.209Z,17.30
2022-11-18T04:11:00.213Z,18.92
2022-11-18T04:13:31.236Z,17.42
2022-11-18T04:15:58.912Z,17.23
2022-11-18T04:18:27.186Z,17.45
2022-11-18T04:20:54.544Z,17.77
2022-11-18T04:23:22.137Z,19.65
2022-11-18T04:25:49.448Z,18.62
2022-11-18T04:28:16.763Z,19.12
2022-11-18T04:30:44.388Z,19.45
2022-11-18T04:33:11.694Z,18.80
2022-11-18T04:35:39.004Z,19.60
2022-11-18T04:38:06.619Z,17.35
2022-11-18T04:40:33.926Z,19.05
2022-11-18T04:43:01.243Z,18.77
2022-11-18T04:45:28.866Z,19.15
2022-11-18T04:48:01.936Z,18.20
2022-11-18T04:52:58.105Z,18.50
2022-11-18T04:55:27.251Z,19.73
2022-11-18T04:57:54.943Z,19.45
2022-11-18T05:00:22.501Z,20.65
2022-11-18T05:02:49.817Z,18.10
2022-11-18T05:05:17.404Z,20.33
2022-11-18T05:07:44.753Z,19.80
2022-11-18T05:10:12.235Z,28.67
2022-11-18T05:12:52.576Z,25.88
2022-11-18T05:15:21.625Z,22.55
2022-11-18T05:17:49.542Z,22.75
2022-11-18T05:20:17.064Z,21.00
2022-11-18T05:22:44.347Z,21.67
2022-11-18T05:25:11.937Z,22.00
2022-11-18T05:27:39.248Z,21.90
2022-11-18T05:30:07.066Z,21.20
2022-11-18T05:32:34.642Z,21.50
2022-11-18T05:35:01.954Z,21.12
2022-11-18T05:37:32.582Z,22.08
2022-11-18T05:40:00.191Z,22.60
2022-11-18T05:42:46.139Z,22.65
2022-11-18T05:45:15.975Z,21.60
2022-11-18T05:48:03.050Z,22.27
2022-11-18T05:50:31.577Z,22.27
2022-11-18T05:52:58.898Z,21.77
2022-11-18T05:55:30.381Z,22.35
2022-11-18T05:57:58.062Z,22.92
2022-11-18T06:00:25.379Z,24.33
2022-11-18T06:02:54.305Z,22.37
2022-11-18T06:05:22.848Z,21.48
2022-11-18T06:07:50.201Z,23.08
2022-11-18T06:10:21.990Z,23.98
2022-11-18T06:12:51.052Z,24.20
2022-11-18T06:15:21.956Z,23.90
2022-11-18T06:17:54.131Z,22.95
2022-11-18T06:20:22.119Z,23.45
2022-11-18T06:22:50.971Z,26.83
2022-11-18T06:25:18.345Z,25.37
2022-11-18T06:27:46.440Z,27.92
2022-11-18T06:30:14.215Z,27.02
2022-11-18T06:32:41.618Z,28.33
2022-11-18T06:35:09.551Z,26.08
2022-11-18T06:37:36.947Z,33.63
2022-11-18T06:40:04.483Z,32.42
2022-11-18T06:42:50.843Z,30.98
2022-11-18T06:45:18.265Z,30.83
2022-11-18T06:47:45.902Z,29.30
2022-11-18T06:50:13.343Z,22.98
2022-11-18T06:52:40.701Z,22.65
2022-11-18T06:55:08.697Z,24.23
2022-11-18T06:57:36.012Z,22.33
2022-11-18T07:00:04.255Z,24.50
2022-11-18T07:02:31.949Z,24.63
2022-11-18T07:04:59.266Z,25.30
2022-11-18T07:07:26.706Z,24.63
2022-11-18T07:09:54.353Z,24.17
2022-11-18T07:12:21.831Z,23.00
2022-11-18T07:14:49.177Z,23.62
2022-11-18T07:17:16.825Z,24.90
2022-11-18T07:19:44.135Z,22.27
2022-11-18T07:22:11.452Z,23.45
2022-11-18T07:24:39.108Z,24.85
2022-11-18T07:27:06.413Z,23.20
2022-11-18T07:29:33.986Z,24.63
2022-11-18T07:32:01.558Z,25.48
2022-11-18T07:34:28.901Z,25.52
2022-11-18T07:36:56.229Z,23.62
2022-11-18T07:39:23.802Z,24.80
2022-11-18T07:41:51.124Z,22.17
2022-11-18T07:44:18.761Z,21.75
2022-11-18T07:46:46.442Z,21.30
2022-11-18T07:49:13.906Z,18.08
2022-11-18T07:51:41.253Z,19.52
2022-11-18T07:54:12.740Z,17.70
2022-11-18T07:56:40.303Z,17.70
2022-11-18T07:59:07.703Z,17.77
2022-11-18T08:01:35.583Z,15.23
2022-11-18T08:04:12.926Z,16.48
2022-11-18T08:06:40.743Z,15.55
2022-11-18T08:09:09.062Z,17.52
2022-11-18T08:11:36.837Z,17.87
2022-11-18T08:14:04.442Z,17.33
2022-11-18T08:16:32.073Z,15.60
2022-11-18T08:19:00.275Z,14.93
2022-11-18T08:21:27.788Z,15.43
2022-11-18T08:23:57.262Z,15.27
2022-11-18T08:26:25.177Z,15.77
2022-11-18T08:28:53.012Z,15.18
2022-11-18T08:31:25.915Z,15.07
2022-11-18T08:34:06.879Z,14.57
2022-11-18T08:36:37.078Z,15.05
2022-11-18T08:39:07.044Z,12.37
2022-11-18T08:41:40.010Z,14.77
2022-11-18T08:44:08.147Z,13.35
2022-11-18T08:46:35.712Z,13.07
2022-11-18T08:49:03.222Z,13.32
2022-11-18T08:51:31.640Z,12.75
2022-11-18T08:54:00.155Z,13.68
2022-11-18T08:56:27.743Z,12.18
2022-11-18T08:58:56.085Z,14.85
2022-11-18T09:01:23.833Z,15.32
2022-11-18T09:03:51.908Z,15.13
2022-11-18T09:06:21.216Z,18.50
2022-11-18T09:08:48.814Z,15.35
2022-11-18T09:11:27.107Z,14.07
2022-11-18T09:16:43.779Z,12.65
2022-11-18T09:19:46.028Z,11.77
2022-11-18T09:21:59.520Z,12.13
2022-11-18T09:24:27.331Z,12.37
2022-11-18T09:26:54.726Z,13.05
2022-11-18T09:29:25.936Z,13.85
2022-11-18T09:31:54.198Z,13.10
2022-11-18T09:34:22.272Z,12.75
2022-11-18T09:36:50.071Z,12.18
2022-11-18T09:39:17.749Z,14.45
2022-11-18T09:42:19.219Z,15.82
2022-11-18T09:44:51.147Z,15.35
2022-11-18T09:47:32.190Z,15.90
2022-11-18T09:50:33.877Z,18.80
2022-11-18T09:53:21.031Z,21.12
2022-11-18T09:55:50.270Z,16.15
2022-11-18T09:58:36.187Z,16.87
2022-11-18T10:01:12.371Z,17.05
2022-11-18T10:03:40.487Z,16.92
2022-11-18T10:06:23.788Z,16.98
2022-11-18T10:09:17.497Z,16.35
2022-11-18T10:12:02.372Z,15.40
2022-11-18T10:14:46.788Z,14.80
2022-11-18T10:17:39.713Z,15.48
2022-11-18T10:20:38.316Z,18.02
2022-11-18T10:23:14.788Z,18.50
2022-11-18T10:25:42.636Z,17.98
2022-11-18T10:28:30.393Z,19.95
2022-11-18T10:31:06.948Z,17.70
2022-11-18T10:33:34.693Z,17.40
2022-11-18T10:36:19.808Z,17.70
2022-11-18T10:38:50.210Z,16.70
2022-11-18T10:41:20.632Z,15.95
2022-11-18T10:43:53.592Z,16.42
2022-11-18T10:46:27.295Z,15.50
2022-11-18T10:49:16.490Z,17.05
2022-11-18T10:51:47.281Z,17.12
2022-11-18T10:54:21.549Z,16.85
2022-11-18T10:56:58.088Z,16.45
2022-11-18T10:59:31.852Z,14.45
2022-11-18T11:02:10.107Z,14.20
2022-11-18T11:04:37.865Z,14.32
2022-11-18T11:07:25.100Z,13.30
2022-11-18T11:10:04.476Z,12.60
2022-11-18T11:12:37.321Z,13.52
2022-11-18T11:15:11.213Z,13.45
2022-11-18T11:17:42.669Z,12.00
2022-11-18T11:20:21.816Z,11.27
2022-11-18T11:22:49.441Z,10.98
2022-11-18T11:28:48.542Z,11.57
2022-11-18T11:31:53.636Z,11.15
2022-11-18T11:34:48.825Z,11.27
2022-11-18T11:37:37.649Z,11.15
2022-11-18T11:40:16.497Z,11.32
2022-11-18T11:43:08.777Z,12.15
2022-11-18T11:45:46.999Z,12.60
2022-11-18T11:48:18.423Z,11.63
2022-11-18T11:51:10.848Z,13.13
2022-11-18T11:54:00.604Z,12.37
2022-11-18T11:56:59.306Z,13.40
2022-11-18T11:59:35.699Z,14.55
2022-11-18T12:02:31.503Z,12.77
2022-11-18T12:05:27.930Z,11.57
2022-11-18T12:08:00.628Z,11.85
2022-11-18T12:10:29.876Z,12.68
2022-11-18T12:13:32.495Z,12.68
2022-11-18T12:16:12.032Z,11.60
2022-11-18T12:18:46.430Z,13.05
2022-11-18T12:21:48.147Z,13.05
2022-11-18T12:24:18.270Z,16.75
2022-11-18T12:26:47.320Z,14.23
2022-11-18T12:29:20.874Z,14.65
2022-11-18T12:31:51.855Z,15.48
2022-11-18T12:34:24.872Z,20.17
2022-11-18T12:36:53.971Z,23.10
2022-11-18T12:39:24.320Z,22.92
2022-11-18T12:42:17.034Z,14.68
2022-11-18T12:44:46.622Z,16.83
2022-11-18T12:47:15.288Z,12.73
2022-11-18T12:49:45.600Z,11.93
2022-11-18T12:52:31.355Z,10.20
2022-11-18T12:55:01.394Z,10.77
2022-11-18T12:57:30.951Z,10.52
2022-11-18T12:59:58.939Z,8.57
2022-11-18T13:02:28.429Z,7.43
2022-11-18T13:05:09.428Z,8.32
2022-11-18T13:08:14.350Z,9.40
2022-11-18T13:11:17.898Z,9.07
2022-11-18T13:13:46.058Z,9.77
2022-11-18T13:16:41.619Z,10.27
2022-11-18T13:19:09.511Z,8.00
2022-11-18T13:21:55.315Z,7.95
2022-11-18T13:24:23.093Z,8.40
2022-11-18T13:26:56.383Z,8.63
2022-11-18T13:29:38.118Z,8.82
2022-11-18T13:32:22.443Z,8.95
2022-11-18T13:34:52.098Z,9.10
2022-11-18T13:37:28.232Z,9.43
2022-11-18T13:39:56.120Z,8.70
2022-11-18T13:42:24.523Z,7.72
2022-11-18T13:44:59.698Z,8.25
2022-11-18T13:47:35.912Z,8.18
2022-11-18T13:50:32.843Z,7.45
2022-11-18T13:53:06.721Z,6.45
2022-11-18T13:55:40.893Z,7.10
2022-11-18T13:58:55.759Z,7.47
2022-11-18T14:01:25.870Z,7.70
2022-11-18T14:03:59.193Z,10.55
2022-11-18T14:06:30.849Z,15.23
2022-11-18T14:09:20.161Z,13.88
2022-11-18T14:15:23.561Z,9.15
2022-11-18T14:17:54.212Z,12.32
2022-11-18T14:20:22.118Z,8.68
2022-11-18T14:22:53.563Z,8.45
2022-11-18T14:25:26.140Z,8.27
2022-11-18T14:27:56.072Z,8.63
2022-11-18T14:30:37.233Z,7.65
2022-11-18T14:33:14.484Z,8.80
2022-11-18T14:35:44.347Z,9.70
2022-11-18T14:38:35.947Z,9.52
2022-11-18T14:41:03.580Z,10.70
2022-11-18T14:43:31.438Z,10.55
2022-11-18T14:46:10.984Z,8.05
2022-11-18T14:48:38.907Z,8.55
2022-11-18T14:51:06.332Z,9.68
2022-11-18T14:53:33.632Z,9.13
2022-11-18T14:56:01.362Z,10.40
2022-11-18T14:58:28.713Z,10.27
2022-11-18T15:00:56.165Z,11.00
2022-11-18T15:03:24.199Z,10.10
2022-11-18T15:05:51.607Z,9.55
2022-11-18T15:08:18.922Z,11.15
2022-11-18T15:10:46.525Z,9.43
2022-11-18T15:13:13.827Z,12.45
2022-11-18T15:15:41.155Z,12.55
2022-11-18T15:18:09.403Z,12.55
2022-11-18T15:20:36.716Z,13.27
2022-11-18T15:23:04.080Z,11.43
2022-11-18T15:25:31.673Z,12.32
2022-11-18T15:27:59.015Z,11.40
2022-11-18T15:30:26.527Z,15.20
2022-11-18T15:32:54.105Z,12.30
2022-11-18T15:35:21.488Z,11.20
2022-11-18T15:37:48.824Z,10.30
2022-11-18T15:40:16.673Z,11.00
2022-11-18T15:42:51.541Z,10.20
2022-11-18T15:45:19.760Z,11.35
2022-11-18T15:47:47.431Z,13.77
2022-11-18T15:50:15.239Z,12.35
2022-11-18T15:52:42.861Z,11.65
2022-11-18T15:55:10.278Z,12.82
2022-11-18T15:57:37.632Z,10.93
2022-11-18T16:00:05.717Z,11.35
2022-11-18T16:02:39.660Z,11.77
2022-11-18T16:07:54.997Z,11.88
2022-11-18T16:10:41.522Z,11.15
2022-11-18T16:13:09.132Z,11.75
2022-11-18T16:15:48.085Z,13.13
2022-11-18T16:18:17.876Z,16.87
2022-11-18T16:20:45.464Z,14.50
2022-11-18T16:23:13.051Z,15.57
2022-11-18T16:25:44.609Z,13.90
2022-11-18T16:28:12.214Z,15.43
2022-11-18T16:30:58.209Z,13.95
2022-11-18T16:33:25.784Z,12.95
2022-11-18T16:35:53.250Z,12.35
2022-11-18T16:38:20.723Z,12.68
2022-11-18T16:40:55.684Z,14.00
2022-11-18T16:43:24.133Z,13.23
2022-11-18T16:45:52.881Z,12.60
2022-11-18T16:48:21.206Z,13.18
2022-11-18T16:51:18.438Z,13.57
2022-11-18T16:53:53.487Z,13.05
2022-11-18T16:56:22.175Z,13.45
2022-11-18T16:58:49.783Z,13.40
2022-11-18T17:01:22.062Z,13.48
2022-11-18T17:03:53.361Z,15.65
2022-11-18T17:06:21.818Z,14.35
2022-11-18T17:08:49.188Z,13.57
2022-11-18T17:11:23.482Z,13.32
2022-11-18T17:13:56.329Z,13.53
2022-11-18T17:16:26.237Z,12.00
2022-11-18T17:18:55.510Z,13.38
2022-11-18T17:21:23.381Z,12.93
2022-11-18T17:23:52.553Z,15.50
2022-11-18T17:26:23.259Z,14.00
2022-11-18T17:28:51.303Z,15.60
2022-11-18T17:31:21.263Z,17.27
2022-11-18T17:33:49.521Z,16.17
2022-11-18T17:36:18.978Z,19.15
2022-11-18T17:38:48.754Z,19.42
2022-11-18T17:44:11.112Z,18.77
2022-11-18T17:46:38.902Z,16.67
2022-11-18T17:49:12.584Z,17.90
2022-11-18T17:51:40.694Z,16.67
2022-11-18T17:54:09.159Z,18.55
2022-11-18T17:56:36.496Z,17.98
2022-11-18T17:59:05.091Z,17.60
2022-11-18T18:01:32.751Z,17.08
2022-11-18T18:04:00.830Z,17.52
2022-11-18T18:06:28.392Z,18.70
2022-11-18T18:08:57.170Z,17.45
2022-11-18T18:11:26.698Z,18.55
2022-11-18T18:14:12.927Z,18.95
2022-11-18T18:16:48.642Z,18.37
2022-11-18T18:19:21.368Z,17.15
2022-11-18T18:21:49.208Z,17.90
2022-11-18T18:24:18.467Z,17.65
2022-11-18T18:26:46.277Z,17.87
2022-11-18T18:29:15.040Z,18.52
2022-11-18T18:31:42.668Z,18.17
2022-11-18T18:34:10.543Z,17.65
2022-11-18T18:36:38.507Z,18.70
2022-11-18T18:39:06.259Z,16.70
2022-11-18T18:41:37.138Z,18.77
2022-11-18T18:44:05.311Z,18.12
2022-11-18T18:46:33.096Z,18.50
2022-11-18T18:49:12.129Z,19.45
2022-11-18T18:51:42.146Z,18.60
2022-11-18T18:54:11.234Z,19.60
2022-11-18T18:56:39.251Z,20.15
2022-11-18T18:59:07.926Z,19.00
2022-11-18T19:01:35.940Z,19.70
2022-11-18T19:04:05.879Z,20.83
2022-11-18T19:06:58.138Z,19.27
2022-11-18T19:09:23.836Z,18.37
2022-11-18T19:12:10.703Z,16.98
2022-11-18T19:14:38.097Z,18.30
2022-11-18T19:17:10.785Z,19.25
2022-11-18T19:19:59.590Z,18.87
2022-11-18T19:22:31.325Z,17.87
2022-11-18T19:25:00.445Z,17.15
2022-11-18T19:27:28.965Z,19.10
2022-11-18T19:29:56.754Z,18.48
2022-11-18T19:32:24.162Z,17.20
2022-11-18T19:34:52.200Z,18.08
2022-11-18T19:37:19.782Z,17.80
2022-11-18T19:39:47.598Z,17.77
2022-11-18T19:42:15.234Z,18.67
2022-11-18T19:44:42.997Z,18.33
2022-11-18T19:47:10.857Z,17.92
2022-11-18T19:49:39.102Z,17.55
2022-11-18T19:52:07.049Z,17.20
2022-11-18T19:54:34.893Z,18.73
2022-11-18T19:57:04.165Z,20.77
2022-11-18T19:59:31.889Z,17.83
2022-11-18T20:01:59.474Z,14.45
2022-11-18T20:04:27.315Z,15.77
2022-11-18T20:06:55.180Z,15.75
2022-11-18T20:09:23.178Z,12.65
2022-11-18T20:11:51.113Z,13.90
2022-11-18T20:14:18.527Z,11.00
2022-11-18T20:16:46.348Z,10.20
2022-11-18T20:19:14.423Z,9.77
2022-11-18T20:21:43.535Z,9.80
2022-11-18T20:24:16.133Z,9.75
2022-11-18T20:26:44.909Z,9.90
2022-11-18T20:29:13.231Z,8.70
2022-11-18T20:31:41.447Z,8.73
2022-11-18T20:34:13.005Z,8.73
2022-11-18T20:36:40.922Z,8.25
2022-11-18T20:39:15.055Z,8.27
2022-11-18T20:41:43.581Z,8.27
2022-11-18T20:44:11.555Z,8.35
2022-11-18T20:46:39.401Z,7.47
2022-11-18T20:49:06.969Z,7.78
2022-11-18T20:51:35.136Z,8.98
2022-11-18T20:54:07.726Z,7.72
2022-11-18T20:56:35.487Z,7.65
2022-11-18T20:59:03.339Z,7.45
2022-11-18T21:01:32.035Z,9.15
2022-11-18T21:04:03.661Z,9.13
2022-11-18T21:06:32.453Z,8.43
2022-11-18T21:09:04.731Z,7.62
2022-11-18T21:11:36.340Z,7.12
2022-11-18T21:14:24.708Z,7.70
2022-11-18T21:17:03.552Z,8.10
2022-11-18T21:19:32.907Z,8.13
2022-11-18T21:22:00.336Z,7.97
2022-11-18T21:24:29.611Z,9.00
2022-11-18T21:26:58.738Z,8.70
2022-11-18T21:29:28.023Z,8.80
2022-11-18T21:31:56.413Z,7.72
2022-11-18T21:34:24.532Z,7.65
2022-11-18T21:36:54.932Z,7.95
2022-11-18T21:39:24.327Z,8.50
2022-11-18T21:41:56.373Z,8.38
2022-11-18T21:44:25.954Z,7.93
2022-11-18T21:46:53.719Z,7.95
2022-11-18T21:49:21.566Z,7.62
2022-11-18T21:51:49.214Z,8.05
2022-11-18T21:54:18.385Z,8.63
2022-11-18T21:56:46.022Z,8.63
2022-11-18T21:59:13.349Z,9.40
2022-11-18T22:01:40.932Z,8.98
2022-11-18T22:04:08.489Z,9.43
2022-11-18T22:06:35.844Z,8.57
2022-11-18T22:09:04.718Z,9.02
2022-11-18T22:11:32.382Z,9.02
2022-11-18T22:13:59.746Z,9.07
2022-11-18T22:16:27.210Z,9.75
2022-11-18T22:18:59.103Z,9.35
2022-11-18T22:21:28.662Z,9.52
2022-11-18T22:23:59.206Z,10.35
2022-11-18T22:26:27.530Z,10.18
2022-11-18T22:28:56.831Z,10.63
2022-11-18T22:31:26.500Z,9.57
2022-11-18T22:33:54.539Z,10.73
2022-11-18T22:36:24.411Z,12.43
2022-11-18T22:38:52.908Z,12.57
2022-11-18T22:41:41.473Z,11.45
2022-11-18T22:44:09.561Z,11.07
2022-11-18T22:46:37.925Z,11.10
2022-11-18T22:49:07.309Z,11.15
2022-11-18T22:51:35.709Z,11.10
2022-11-18T22:56:51.558Z,11.88
2022-11-18T22:59:19.187Z,11.48
2022-11-18T23:01:46.590Z,12.20
2022-11-18T23:04:14.256Z,12.32
2022-11-18T23:06:41.561Z,12.23
2022-11-18T23:09:09.768Z,12.52
2022-11-18T23:12:06.394Z,13.20
2022-11-18T23:14:33.822Z,12.98
2022-11-18T23:17:01.429Z,12.75
2022-11-18T23:19:28.753Z,11.82
2022-11-18T23:21:56.098Z,13.32
2022-11-18T23:24:23.675Z,13.30
2022-11-18T23:26:51.197Z,12.68
2022-11-18T23:29:18.995Z,12.85
2022-11-18T23:31:46.870Z,14.45
2022-11-18T23:34:15.505Z,12.63
2022-11-18T23:36:43.302Z,13.48
2022-11-18T23:39:11.460Z,13.13
2022-11-18T23:41:39.537Z,12.95
2022-11-18T23:44:07.142Z,13.48
2022-11-18T23:46:34.815Z,12.98
2022-11-18T23:49:02.154Z,14.07
2022-11-18T23:51:29.478Z,12.50
2022-11-18T23:53:57.638Z,13.98
2022-11-18T23:56:26.635Z,14.30
2022-11-18T23:58:55.270Z,12.90
